SVCS weather

Oscar Machado Zuluaga Airport
Caracas, Miranda, Venezuela

Public forecast

Using degrees Celsius for public forecast. Weather courtesy of forecast.io.

METAR (pilot weather report)

Report is more than 6 hours old.

Retrieved 2017/12/08 11:00 UTC (2 years ago):

SVCS 081100Z NI

TAF (pilot weather forecast)

Forecast is more than 12 hours old.

Closest forecast is Simón Bolívar International Airport, 21.6 nm (39.9 km) NNW. Retrieved 2019/09/20 00:00 UTC (1 day ago):

TAF SVMI 202200Z 2100/2200 FTVN20 SVMI 192200= TAF SVMI 202200Z 2100/2200 09002KT 9000 -DZ BNK016 TX30/18Z TN24/06Z PROB30 TEMPO 2101/2105 09005KT 8000 DZ BNK016